Terminal Aerodrome Forecast
Issued by NWS Pendleton, OR

Home | Current Version | Previous Version | Text Only | Print | Product List | Glossary On
Versions: 1 2 3 4 5 6 7 8 9 10 11 12 13 14 15 16 17 18 19 20 21
000
FTUS46 KPDT 261130
TAFPDT
TAF
KPDT 261130Z 2612/2712 VRB05KT P6SM FEW035 SCT080
     FM261600 14006KT P6SM SCT050 OVC070
     FM262100 20008KT P6SM -RA FEW025 SCT035 OVC050
     FM270200 14006KT P6SM -RA BKN025 OVC050
     FM270600 24008KT P6SM VCSH SCT035 OVC050=

USA.gov is the U.S. government's official web portal to all federal, state and local government web resources and services.